Time,TemperatureF,DewpointF,PressureIn,WindDirection,WindDirectionDegrees,WindSpeedMPH,WindSpeedGustMPH,Humidity,HourlyPrecipIn,Conditions,Clouds,dailyrainin,SoftwareType,DateUTC
2013-05-26 00:01:00,47.0,-40.0,29.95,East,90,6.0,13.0,0,0.00,,,0.00,Rainwise IP-100,2013-05-26 04:01:00,
2013-05-26 00:06:00,47.0,-40.0,29.95,ENE,67,11.0,16.0,0,0.00,,,0.00,Rainwise IP-100,2013-05-26 04:06:00,
2013-05-26 00:11:00,47.0,-40.0,29.96,East,90,11.0,15.0,0,0.06,,,0.01,Rainwise IP-100,2013-05-26 04:11:00,
2013-05-26 00:16:00,47.0,-40.0,29.95,ESE,112,11.0,16.0,0,0.06,,,0.01,Rainwise IP-100,2013-05-26 04:16:00,
2013-05-26 00:21:00,47.0,-40.0,29.95,ESE,112,10.0,12.0,0,0.00,,,0.01,Rainwise IP-100,2013-05-26 04:21:00,
2013-05-26 00:26:00,47.0,-23.0,29.95,ESE,112,12.0,13.0,2,0.00,,,0.01,Rainwise IP-100,2013-05-26 04:26:00,
2013-05-26 00:29:00,47.0,-40.0,29.95,ESE,112,12.0,13.0,0,0.00,,,0.01,Rainwise IP-100,2013-05-26 04:29:00,
2013-05-26 00:34:00,47.0,-40.0,29.94,ESE,112,12.0,16.0,0,0.00,,,0.01,Rainwise IP-100,2013-05-26 04:34:00,
2013-05-26 00:39:00,47.0,-40.0,29.94,ESE,112,12.0,16.0,0,0.00,,,0.01,Rainwise IP-100,2013-05-26 04:39:00,
2013-05-26 00:44:00,47.0,-40.0,29.94,ESE,112,15.0,16.0,0,0.00,,,0.01,Rainwise IP-100,2013-05-26 04:44:00,
2013-05-26 00:49:00,47.0,18.0,29.94,ESE,112,10.0,15.0,32,0.00,,,0.01,Rainwise IP-100,2013-05-26 04:49:00,
2013-05-26 00:54:00,47.0,-40.0,29.93,ESE,112,12.0,13.0,0,0.00,,,0.01,Rainwise IP-100,2013-05-26 04:54:00,
2013-05-26 00:59:00,47.0,-40.0,29.93,East,90,12.0,13.0,0,0.00,,,0.01,Rainwise IP-100,2013-05-26 04:59:00,
2013-05-26 01:13:00,47.0,-40.0,29.92,East,90,12.0,14.0,0,0.00,,,0.01,Rainwise IP-100,2013-05-26 05:13:00,
2013-05-26 01:15:00,47.0,16.0,29.92,East,90,12.0,15.0,27,0.00,,,0.01,Rainwise IP-100,2013-05-26 05:15:00,
2013-05-26 01:16:00,47.0,-40.0,29.92,ESE,112,14.0,15.0,0,0.00,,,0.01,Rainwise IP-100,2013-05-26 05:16:00,
2013-05-26 01:28:00,47.0,-40.0,29.92,ESE,112,9.0,14.0,0,0.00,,,0.01,Rainwise IP-100,2013-05-26 05:28:00,
2013-05-26 01:33:00,47.0,-40.0,29.92,ESE,112,12.0,12.0,0,0.00,,,0.01,Rainwise IP-100,2013-05-26 05:33:00,
2013-05-26 01:38:00,47.0,-40.0,29.91,East,90,10.0,13.0,0,0.00,,,0.01,Rainwise IP-100,2013-05-26 05:38:00,
2013-05-26 01:43:00,47.0,-40.0,29.91,East,90,9.0,13.0,0,0.00,,,0.01,Rainwise IP-100,2013-05-26 05:43:00,
2013-05-26 01:48:00,47.0,-40.0,29.91,East,90,8.0,13.0,0,0.00,,,0.01,Rainwise IP-100,2013-05-26 05:48:00,
2013-05-26 01:53:00,47.0,-40.0,29.91,East,90,9.0,13.0,0,0.00,,,0.01,Rainwise IP-100,2013-05-26 05:53:00,
2013-05-26 01:58:00,47.0,-40.0,29.90,East,90,12.0,15.0,0,0.00,,,0.01,Rainwise IP-100,2013-05-26 05:58:00,
2013-05-26 02:03:00,47.0,-40.0,29.90,East,90,10.0,15.0,0,0.00,,,0.01,Rainwise IP-100,2013-05-26 06:03:00,
2013-05-26 02:08:00,47.0,-40.0,29.90,East,90,12.0,15.0,0,0.00,,,0.01,Rainwise IP-100,2013-05-26 06:08:00,
2013-05-26 02:13:00,47.0,-40.0,29.90,East,90,10.0,15.0,0,0.00,,,0.01,Rainwise IP-100,2013-05-26 06:13:00,
2013-05-26 02:18:00,47.0,-40.0,29.90,East,90,12.0,15.0,0,0.00,,,0.01,Rainwise IP-100,2013-05-26 06:18:00,
2013-05-26 02:23:00,47.0,-40.0,29.89,ESE,112,8.0,15.0,0,0.00,,,0.01,Rainwise IP-100,2013-05-26 06:23:00,
2013-05-26 02:28:00,47.0,-40.0,29.89,ESE,112,7.0,16.0,0,0.00,,,0.01,Rainwise IP-100,2013-05-26 06:28:00,
2013-05-26 02:33:00,47.0,-40.0,29.89,East,90,11.0,13.0,0,0.00,,,0.01,Rainwise IP-100,2013-05-26 06:33:00,
2013-05-26 02:38:00,47.0,-40.0,29.89,East,90,10.0,14.0,0,0.06,,,0.02,Rainwise IP-100,2013-05-26 06:38:00,
2013-05-26 02:43:00,47.0,-40.0,29.88,SE,135,6.0,13.0,0,0.06,,,0.02,Rainwise IP-100,2013-05-26 06:43:00,
2013-05-26 02:51:00,47.0,-40.0,29.88,East,90,9.0,12.0,0,0.00,,,0.02,Rainwise IP-100,2013-05-26 06:51:00,
2013-05-26 03:06:00,47.0,11.0,29.88,ENE,67,3.0,15.0,22,0.06,,,0.03,Rainwise IP-100,2013-05-26 07:06:00,
2013-05-26 03:12:00,47.0,-40.0,29.88,ESE,112,11.0,12.0,0,0.12,,,0.04,Rainwise IP-100,2013-05-26 07:12:00,
2013-05-26 03:19:00,47.0,-40.0,29.87,ESE,112,11.0,14.0,0,0.12,,,0.05,Rainwise IP-100,2013-05-26 07:19:00,
2013-05-26 03:24:00,47.0,-40.0,29.87,ESE,112,13.0,14.0,0,0.12,,,0.06,Rainwise IP-100,2013-05-26 07:24:00,
2013-05-26 03:29:00,47.0,-40.0,29.87,ESE,112,13.0,15.0,0,0.06,,,0.06,Rainwise IP-100,2013-05-26 07:29:00,
2013-05-26 03:34:00,47.0,-40.0,29.87,ESE,112,12.0,15.0,0,0.06,,,0.07,Rainwise IP-100,2013-05-26 07:34:00,
2013-05-26 03:39:00,47.0,-40.0,29.87,East,90,11.0,14.0,0,0.12,,,0.08,Rainwise IP-100,2013-05-26 07:39:00,
2013-05-26 03:44:00,47.0,14.0,29.86,East,90,9.0,15.0,25,0.06,,,0.08,Rainwise IP-100,2013-05-26 07:44:00,
2013-05-26 03:49:00,47.0,16.0,29.86,ESE,112,12.0,16.0,27,0.00,,,0.08,Rainwise IP-100,2013-05-26 07:49:00,
2013-05-26 03:54:00,47.0,-40.0,29.86,East,90,9.0,16.0,0,0.06,,,0.09,Rainwise IP-100,2013-05-26 07:54:00,
2013-05-26 03:59:00,47.0,18.0,29.86,ESE,112,15.0,16.0,32,0.06,,,0.09,Rainwise IP-100,2013-05-26 07:59:00,
2013-05-26 04:04:00,47.0,-40.0,29.86,ESE,112,15.0,17.0,0,0.00,,,0.09,Rainwise IP-100,2013-05-26 08:04:00,
2013-05-26 04:09:00,47.0,-40.0,29.86,ESE,112,9.0,17.0,0,0.06,,,0.10,Rainwise IP-100,2013-05-26 08:09:00,
2013-05-26 04:14:00,47.0,-40.0,29.86,East,90,14.0,15.0,0,0.06,,,0.11,Rainwise IP-100,2013-05-26 08:14:00,
2013-05-26 04:19:00,46.0,-40.0,29.86,ESE,112,11.0,14.0,0,0.06,,,0.11,Rainwise IP-100,2013-05-26 08:19:00,
2013-05-26 04:24:00,46.0,-40.0,29.86,East,90,12.0,16.0,0,0.12,,,0.12,Rainwise IP-100,2013-05-26 08:24:00,
2013-05-26 04:33:00,46.0,-40.0,29.86,ENE,67,8.0,17.0,0,0.12,,,0.14,Rainwise IP-100,2013-05-26 08:33:00,
2013-05-26 04:38:00,46.0,-40.0,29.86,ENE,67,12.0,16.0,0,0.06,,,0.14,Rainwise IP-100,2013-05-26 08:38:00,
2013-05-26 04:43:00,46.0,-40.0,29.86,ENE,67,10.0,14.0,0,0.06,,,0.15,Rainwise IP-100,2013-05-26 08:43:00,
2013-05-26 04:48:00,46.0,-13.0,29.86,ENE,67,4.0,13.0,6,0.06,,,0.15,Rainwise IP-100,2013-05-26 08:48:00,
2013-05-26 04:53:00,46.0,-40.0,29.86,ENE,67,12.0,15.0,0,0.00,,,0.15,Rainwise IP-100,2013-05-26 08:53:00,
2013-05-26 04:58:00,46.0,-40.0,29.86,East,90,14.0,15.0,0,0.06,,,0.16,Rainwise IP-100,2013-05-26 08:58:00,
2013-05-26 05:03:00,46.0,-40.0,29.86,ESE,112,6.0,15.0,0,0.12,,,0.17,Rainwise IP-100,2013-05-26 09:03:00,
2013-05-26 05:08:00,46.0,-40.0,29.86,ENE,67,12.0,14.0,0,0.06,,,0.17,Rainwise IP-100,2013-05-26 09:08:00,
2013-05-26 05:13:00,46.0,-40.0,29.86,East,90,10.0,16.0,0,0.06,,,0.18,Rainwise IP-100,2013-05-26 09:13:00,
2013-05-26 05:18:00,46.0,-40.0,29.86,ESE,112,11.0,12.0,0,0.12,,,0.19,Rainwise IP-100,2013-05-26 09:18:00,
2013-05-26 05:23:00,46.0,-40.0,29.86,East,90,7.0,13.0,0,0.06,,,0.19,Rainwise IP-100,2013-05-26 09:23:00,
2013-05-26 05:28:00,46.0,-40.0,29.86,SE,135,9.0,13.0,0,0.00,,,0.19,Rainwise IP-100,2013-05-26 09:28:00,
2013-05-26 05:33:00,46.0,-40.0,29.87,SSE,157,11.0,13.0,0,0.06,,,0.20,Rainwise IP-100,2013-05-26 09:33:00,
2013-05-26 05:38:00,46.0,-40.0,29.86,SSE,157,6.0,12.0,0,0.06,,,0.20,Rainwise IP-100,2013-05-26 09:38:00,
2013-05-26 05:43:00,46.0,-40.0,29.86,ESE,112,7.0,15.0,0,0.00,,,0.20,Rainwise IP-100,2013-05-26 09:43:00,
2013-05-26 05:48:00,45.0,-40.0,29.87,SSE,157,2.0,11.0,0,0.00,,,0.20,Rainwise IP-100,2013-05-26 09:48:00,
2013-05-26 05:53:00,45.0,-40.0,29.87,SW,225,0.0,12.0,0,0.00,,,0.20,Rainwise IP-100,2013-05-26 09:53:00,
2013-05-26 05:58:00,45.0,-40.0,29.87,SSE,157,3.0,7.0,0,0.00,,,0.20,Rainwise IP-100,2013-05-26 09:58:00,
2013-05-26 06:03:00,45.0,-40.0,29.87,SSE,157,3.0,7.0,0,0.00,,,0.20,Rainwise IP-100,2013-05-26 10:03:00,
2013-05-26 06:08:00,45.0,-40.0,29.88,South,180,5.0,9.0,0,0.00,,,0.20,Rainwise IP-100,2013-05-26 10:08:00,
2013-05-26 06:13:00,45.0,-40.0,29.88,ESE,112,2.0,7.0,0,0.00,,,0.20,Rainwise IP-100,2013-05-26 10:13:00,
2013-05-26 06:18:00,45.0,-40.0,29.88,SSE,157,2.0,8.0,0,0.00,,,0.20,Rainwise IP-100,2013-05-26 10:18:00,
2013-05-26 06:23:00,45.0,-40.0,29.88,ESE,112,3.0,7.0,0,0.00,,,0.20,Rainwise IP-100,2013-05-26 10:23:00,
2013-05-26 06:31:00,45.0,-40.0,29.88,South,180,0.0,7.0,0,0.00,,,0.20,Rainwise IP-100,2013-05-26 10:31:00,
2013-05-26 06:36:00,45.0,21.0,29.87,SSE,157,4.0,6.0,37,0.00,,,0.20,Rainwise IP-100,2013-05-26 10:36:00,
2013-05-26 06:41:00,45.0,23.0,29.88,SSE,157,6.0,6.0,39,0.00,,,0.20,Rainwise IP-100,2013-05-26 10:41:00,
2013-05-26 06:46:00,45.0,-40.0,29.88,SW,225,0.0,9.0,0,0.00,,,0.20,Rainwise IP-100,2013-05-26 10:46:00,
2013-05-26 06:52:00,45.0,21.0,29.88,South,180,2.0,10.0,38,0.00,,,0.20,Rainwise IP-100,2013-05-26 10:52:00,
2013-05-26 06:57:00,45.0,-40.0,29.88,SSE,157,6.0,12.0,0,0.00,,,0.20,Rainwise IP-100,2013-05-26 10:57:00,
2013-05-26 07:02:00,44.0,-40.0,29.88,SSE,157,6.0,12.0,0,0.00,,,0.20,Rainwise IP-100,2013-05-26 11:02:00,
2013-05-26 07:07:00,45.0,-40.0,29.88,SE,135,9.0,11.0,0,0.00,,,0.20,Rainwise IP-100,2013-05-26 11:07:00,
2013-05-26 07:12:00,44.0,-40.0,29.88,SSE,157,7.0,13.0,0,0.00,,,0.20,Rainwise IP-100,2013-05-26 11:12:00,
2013-05-26 07:17:00,45.0,-40.0,29.88,SE,135,10.0,13.0,0,0.00,,,0.20,Rainwise IP-100,2013-05-26 11:17:00,
2013-05-26 07:22:00,44.0,-40.0,29.88,SSE,157,11.0,16.0,0,0.00,,,0.20,Rainwise IP-100,2013-05-26 11:22:00,
2013-05-26 07:27:00,44.0,-13.0,29.89,SSE,157,12.0,15.0,6,0.00,,,0.20,Rainwise IP-100,2013-05-26 11:27:00,
2013-05-26 07:32:00,44.0,-40.0,29.89,SE,135,12.0,14.0,0,0.00,,,0.20,Rainwise IP-100,2013-05-26 11:32:00,
2013-05-26 07:37:00,44.0,-40.0,29.89,SSE,157,6.0,15.0,0,0.00,,,0.20,Rainwise IP-100,2013-05-26 11:37:00,
2013-05-26 07:43:00,44.0,-40.0,29.89,SE,135,9.0,14.0,0,0.00,,,0.20,Rainwise IP-100,2013-05-26 11:43:00,
2013-05-26 07:48:00,44.0,-40.0,29.89,SSE,157,7.0,12.0,0,0.00,,,0.20,Rainwise IP-100,2013-05-26 11:48:00,
2013-05-26 07:53:00,44.0,-40.0,29.89,SE,135,11.0,14.0,0,0.00,,,0.20,Rainwise IP-100,2013-05-26 11:53:00,
2013-05-26 07:58:00,44.0,-40.0,29.90,SSE,157,7.0,13.0,0,0.00,,,0.20,Rainwise IP-100,2013-05-26 11:58:00,
2013-05-26 08:03:00,44.0,-40.0,29.89,SSE,157,6.0,10.0,0,0.00,,,0.20,Rainwise IP-100,2013-05-26 12:03:00,
2013-05-26 08:08:00,44.0,-40.0,29.90,SSE,157,7.0,13.0,0,0.00,,,0.20,Rainwise IP-100,2013-05-26 12:08:00,
2013-05-26 08:13:00,44.0,-23.0,29.90,SE,135,7.0,13.0,4,0.00,,,0.20,Rainwise IP-100,2013-05-26 12:13:00,
2013-05-26 08:18:00,44.0,-40.0,29.90,SSE,157,9.0,13.0,0,0.00,,,0.20,Rainwise IP-100,2013-05-26 12:18:00,
2013-05-26 08:23:00,44.0,-40.0,29.90,SE,135,9.0,12.0,0,0.00,,,0.20,Rainwise IP-100,2013-05-26 12:23:00,
2013-05-26 08:28:00,44.0,-40.0,29.90,SE,135,10.0,13.0,0,0.00,,,0.20,Rainwise IP-100,2013-05-26 12:28:00,
2013-05-26 08:33:00,44.0,-40.0,29.90,SSE,157,10.0,13.0,0,0.00,,,0.20,Rainwise IP-100,2013-05-26 12:33:00,
2013-05-26 08:38:00,44.0,-40.0,29.90,SSE,157,12.0,13.0,0,0.00,,,0.20,Rainwise IP-100,2013-05-26 12:38:00,
2013-05-26 08:43:00,44.0,-40.0,29.91,SE,135,10.0,14.0,0,0.00,,,0.20,Rainwise IP-100,2013-05-26 12:43:00,
2013-05-26 08:48:00,44.0,-40.0,29.91,SE,135,9.0,14.0,0,0.00,,,0.20,Rainwise IP-100,2013-05-26 12:48:00,
2013-05-26 08:53:00,44.0,-40.0,29.91,SSE,157,10.0,13.0,0,0.00,,,0.20,Rainwise IP-100,2013-05-26 12:53:00,
2013-05-26 08:58:00,44.0,-40.0,29.91,SE,135,10.0,12.0,0,0.00,,,0.20,Rainwise IP-100,2013-05-26 12:58:00,
2013-05-26 09:03:00,44.0,-40.0,29.91,SE,135,12.0,12.0,0,0.00,,,0.20,Rainwise IP-100,2013-05-26 13:03:00,
2013-05-26 09:08:00,44.0,-40.0,29.91,SSE,157,13.0,13.0,0,0.00,,,0.20,Rainwise IP-100,2013-05-26 13:08:00,
2013-05-26 09:19:00,44.0,-40.0,29.91,SSE,157,9.0,14.0,0,0.00,,,0.20,Rainwise IP-100,2013-05-26 13:19:00,
2013-05-26 09:24:00,44.0,-40.0,29.91,SE,135,9.0,13.0,0,0.00,,,0.20,Rainwise IP-100,2013-05-26 13:24:00,
2013-05-26 09:29:00,44.0,-40.0,29.91,SE,135,10.0,12.0,0,0.00,,,0.20,Rainwise IP-100,2013-05-26 13:29:00,
2013-05-26 09:34:00,44.0,-40.0,29.91,SSE,157,0.0,13.0,0,0.00,,,0.20,Rainwise IP-100,2013-05-26 13:34:00,
2013-05-26 09:39:00,44.0,-40.0,29.91,SE,135,12.0,13.0,0,0.00,,,0.20,Rainwise IP-100,2013-05-26 13:39:00,
2013-05-26 09:44:00,44.0,-40.0,29.91,SSE,157,10.0,13.0,0,0.00,,,0.20,Rainwise IP-100,2013-05-26 13:44:00,
2013-05-26 09:49:00,45.0,-40.0,29.91,SSE,157,6.0,12.0,0,0.00,,,0.20,Rainwise IP-100,2013-05-26 13:49:00,
2013-05-26 09:54:00,44.0,-40.0,29.91,SSE,157,11.0,13.0,0,0.00,,,0.20,Rainwise IP-100,2013-05-26 13:54:00,
2013-05-26 09:59:00,44.0,-40.0,29.91,SSE,157,13.0,15.0,0,0.00,,,0.20,Rainwise IP-100,2013-05-26 13:59:00,
2013-05-26 10:04:00,44.0,23.0,29.91,SSE,157,9.0,15.0,42,0.00,,,0.20,Rainwise IP-100,2013-05-26 14:04:00,
2013-05-26 10:09:00,44.0,-40.0,29.92,SSE,157,10.0,15.0,0,0.00,,,0.20,Rainwise IP-100,2013-05-26 14:09:00,
2013-05-26 10:14:00,45.0,-40.0,29.92,South,180,10.0,14.0,0,0.00,,,0.20,Rainwise IP-100,2013-05-26 14:14:00,
2013-05-26 10:19:00,45.0,-40.0,29.92,SE,135,10.0,13.0,0,0.00,,,0.20,Rainwise IP-100,2013-05-26 14:19:00,
2013-05-26 10:24:00,45.0,23.0,29.92,SSE,157,12.0,15.0,40,0.00,,,0.20,Rainwise IP-100,2013-05-26 14:24:00,
2013-05-26 10:29:00,45.0,-13.0,29.92,SSE,157,11.0,13.0,8,0.00,,,0.20,Rainwise IP-100,2013-05-26 14:29:00,
2013-05-26 10:34:00,45.0,24.0,29.92,SSE,157,2.0,12.0,43,0.00,,,0.20,Rainwise IP-100,2013-05-26 14:34:00,
2013-05-26 10:39:00,45.0,-13.0,29.92,SSE,157,12.0,12.0,5,0.00,,,0.20,Rainwise IP-100,2013-05-26 14:39:00,
2013-05-26 10:44:00,45.0,14.0,29.92,SSE,157,8.0,13.0,28,0.00,,,0.20,Rainwise IP-100,2013-05-26 14:44:00,
2013-05-26 10:49:00,46.0,-6.0,29.92,SSE,157,9.0,12.0,9,0.00,,,0.20,Rainwise IP-100,2013-05-26 14:49:00,
2013-05-26 10:54:00,46.0,21.0,29.92,SE,135,9.0,12.0,35,0.00,,,0.20,Rainwise IP-100,2013-05-26 14:54:00,
2013-05-26 10:59:00,46.0,31.0,29.93,SE,135,12.0,12.0,55,0.00,,,0.20,Rainwise IP-100,2013-05-26 14:59:00,
2013-05-26 11:04:00,45.0,14.0,29.92,SSE,157,12.0,13.0,25,0.00,,,0.20,Rainwise IP-100,2013-05-26 15:04:00,
2013-05-26 11:09:00,45.0,-40.0,29.93,SE,135,10.0,16.0,0,0.00,,,0.20,Rainwise IP-100,2013-05-26 15:09:00,
2013-05-26 11:14:00,45.0,31.0,29.93,SSE,157,13.0,14.0,57,0.00,,,0.20,Rainwise IP-100,2013-05-26 15:14:00,
2013-05-26 11:19:00,45.0,31.0,29.93,SSE,157,10.0,13.0,57,0.00,,,0.20,Rainwise IP-100,2013-05-26 15:19:00,
2013-05-26 11:24:00,45.0,-40.0,29.93,SSE,157,10.0,13.0,0,0.00,,,0.20,Rainwise IP-100,2013-05-26 15:24:00,
2013-05-26 11:29:00,45.0,-13.0,29.93,SE,135,9.0,12.0,5,0.00,,,0.20,Rainwise IP-100,2013-05-26 15:29:00,
2013-05-26 11:34:00,46.0,18.0,29.93,SE,135,10.0,12.0,31,0.00,,,0.20,Rainwise IP-100,2013-05-26 15:34:00,
2013-05-26 11:39:00,45.0,14.0,29.93,SE,135,8.0,12.0,28,0.00,,,0.20,Rainwise IP-100,2013-05-26 15:39:00,
2013-05-26 11:44:00,45.0,32.0,29.93,SSE,157,9.0,11.0,59,0.00,,,0.20,Rainwise IP-100,2013-05-26 15:44:00,
2013-05-26 11:49:00,45.0,26.0,29.93,SE,135,8.0,10.0,45,0.00,,,0.20,Rainwise IP-100,2013-05-26 15:49:00,
2013-05-26 11:54:00,45.0,32.0,29.93,SE,135,9.0,10.0,61,0.00,,,0.20,Rainwise IP-100,2013-05-26 15:54:00,
2013-05-26 11:59:00,45.0,33.0,29.93,SE,135,9.0,11.0,62,0.00,,,0.20,Rainwise IP-100,2013-05-26 15:59:00,
2013-05-26 12:04:00,45.0,32.0,29.93,SSE,157,6.0,9.0,61,0.00,,,0.20,Rainwise IP-100,2013-05-26 16:04:00,
2013-05-26 12:09:00,45.0,32.0,29.93,SE,135,5.0,7.0,61,0.00,,,0.20,Rainwise IP-100,2013-05-26 16:09:00,
2013-05-26 12:14:00,45.0,33.0,29.94,SE,135,4.0,7.0,62,0.00,,,0.20,Rainwise IP-100,2013-05-26 16:14:00,
2013-05-26 12:19:00,46.0,33.0,29.94,SE,135,5.0,8.0,62,0.00,,,0.20,Rainwise IP-100,2013-05-26 16:19:00,
2013-05-26 12:24:00,46.0,35.0,29.94,SSE,157,4.0,7.0,64,0.00,,,0.20,Rainwise IP-100,2013-05-26 16:24:00,
2013-05-26 12:29:00,46.0,35.0,29.94,East,90,2.0,6.0,64,0.00,,,0.20,Rainwise IP-100,2013-05-26 16:29:00,
2013-05-26 12:34:00,48.0,35.0,29.94,East,90,1.0,5.0,59,0.00,,,0.20,Rainwise IP-100,2013-05-26 16:34:00,
2013-05-26 12:44:00,48.0,37.0,29.94,SE,135,7.0,7.0,65,0.00,,,0.20,Rainwise IP-100,2013-05-26 16:44:00,
2013-05-26 12:51:00,47.0,33.0,29.94,SE,135,6.0,7.0,60,0.00,,,0.20,Rainwise IP-100,2013-05-26 16:51:00,
2013-05-26 12:56:00,47.0,35.0,29.94,SE,135,6.0,9.0,62,0.00,,,0.20,Rainwise IP-100,2013-05-26 16:56:00,
2013-05-26 13:01:00,47.0,35.0,29.94,SSE,157,7.0,8.0,64,0.00,,,0.20,Rainwise IP-100,2013-05-26 17:01:00,
2013-05-26 13:07:00,47.0,36.0,29.94,ESE,112,9.0,9.0,65,0.00,,,0.20,Rainwise IP-100,2013-05-26 17:07:00,
2013-05-26 13:12:00,47.0,36.0,29.94,ESE,112,7.0,9.0,65,0.00,,,0.20,Rainwise IP-100,2013-05-26 17:12:00,
2013-05-26 13:17:00,47.0,36.0,29.94,SE,135,7.0,10.0,65,0.00,,,0.20,Rainwise IP-100,2013-05-26 17:17:00,
2013-05-26 13:22:00,47.0,36.0,29.94,SE,135,7.0,9.0,65,0.00,,,0.20,Rainwise IP-100,2013-05-26 17:22:00,
2013-05-26 13:27:00,46.0,35.0,29.94,ESE,112,7.0,9.0,65,0.00,,,0.20,Rainwise IP-100,2013-05-26 17:27:00,
2013-05-26 13:32:00,47.0,36.0,29.94,SE,135,6.0,9.0,66,0.00,,,0.20,Rainwise IP-100,2013-05-26 17:32:00,
2013-05-26 13:37:00,47.0,36.0,29.94,SE,135,6.0,7.0,66,0.00,,,0.20,Rainwise IP-100,2013-05-26 17:37:00,
2013-05-26 13:43:00,47.0,36.0,29.95,SE,135,5.0,7.0,66,0.00,,,0.20,Rainwise IP-100,2013-05-26 17:43:00,
2013-05-26 13:48:00,47.0,37.0,29.95,ESE,112,2.0,6.0,70,0.00,,,0.20,Rainwise IP-100,2013-05-26 17:48:00,
2013-05-26 13:53:00,48.0,39.0,29.95,SE,135,7.0,7.0,70,0.00,,,0.20,Rainwise IP-100,2013-05-26 17:53:00,
2013-05-26 13:58:00,48.0,39.0,29.95,ESE,112,8.0,8.0,71,0.00,,,0.20,Rainwise IP-100,2013-05-26 17:58:00,
2013-05-26 14:04:00,48.0,38.0,29.96,ESE,112,6.0,7.0,67,0.00,,,0.20,Rainwise IP-100,2013-05-26 18:04:00,
2013-05-26 14:09:00,48.0,38.0,29.96,SE,135,3.0,7.0,68,0.00,,,0.20,Rainwise IP-100,2013-05-26 18:09:00,
2013-05-26 14:14:00,48.0,38.0,29.96,ESE,112,7.0,8.0,68,0.00,,,0.20,Rainwise IP-100,2013-05-26 18:14:00,
2013-05-26 14:19:00,48.0,38.0,29.96,ESE,112,4.0,8.0,67,0.00,,,0.20,Rainwise IP-100,2013-05-26 18:19:00,
2013-05-26 14:24:00,48.0,38.0,29.96,ESE,112,3.0,7.0,68,0.00,,,0.20,Rainwise IP-100,2013-05-26 18:24:00,
2013-05-26 14:29:00,48.0,38.0,29.96,East,90,3.0,6.0,67,0.00,,,0.20,Rainwise IP-100,2013-05-26 18:29:00,
2013-05-26 14:34:00,48.0,37.0,29.96,East,90,5.0,6.0,65,0.00,,,0.20,Rainwise IP-100,2013-05-26 18:34:00,
2013-05-26 14:39:00,48.0,37.0,29.96,ESE,112,0.0,6.0,65,0.00,,,0.20,Rainwise IP-100,2013-05-26 18:39:00,
2013-05-26 14:44:00,48.0,37.0,29.96,SE,135,0.0,4.0,65,0.00,,,0.20,Rainwise IP-100,2013-05-26 18:44:00,
2013-05-26 14:49:00,48.0,37.0,29.96,SE,135,2.0,3.0,65,0.00,,,0.20,Rainwise IP-100,2013-05-26 18:49:00,
2013-05-26 14:54:00,49.0,38.0,29.96,SE,135,0.0,4.0,65,0.00,,,0.20,Rainwise IP-100,2013-05-26 18:54:00,
2013-05-26 14:59:00,48.0,37.0,29.96,ESE,112,0.0,4.0,65,0.00,,,0.20,Rainwise IP-100,2013-05-26 18:59:00,
2013-05-26 15:04:00,49.0,38.0,29.96,SSE,157,1.0,3.0,65,0.00,,,0.20,Rainwise IP-100,2013-05-26 19:04:00,
2013-05-26 15:09:00,49.0,38.0,29.97,SSE,157,1.0,3.0,65,0.00,,,0.20,Rainwise IP-100,2013-05-26 19:09:00,
2013-05-26 15:14:00,49.0,38.0,29.97,SSE,157,1.0,4.0,65,0.00,,,0.20,Rainwise IP-100,2013-05-26 19:14:00,
2013-05-26 15:19:00,49.0,38.0,29.97,SSE,157,1.0,3.0,65,0.00,,,0.20,Rainwise IP-100,2013-05-26 19:19:00,
2013-05-26 15:24:00,49.0,38.0,29.97,SE,135,0.0,2.0,65,0.00,,,0.20,Rainwise IP-100,2013-05-26 19:24:00,
2013-05-26 15:29:00,49.0,38.0,29.97,SSE,157,0.0,2.0,65,0.00,,,0.20,Rainwise IP-100,2013-05-26 19:29:00,
2013-05-26 15:34:00,49.0,38.0,29.98,ESE,112,0.0,0.0,65,0.00,,,0.20,Rainwise IP-100,2013-05-26 19:34:00,
2013-05-26 15:39:00,49.0,38.0,29.98,ESE,112,0.0,0.0,65,0.00,,,0.20,Rainwise IP-100,2013-05-26 19:39:00,
2013-05-26 15:44:00,50.0,38.0,29.98,ESE,112,0.0,0.0,65,0.00,,,0.20,Rainwise IP-100,2013-05-26 19:44:00,
2013-05-26 15:49:00,49.0,37.0,29.98,ESE,112,0.0,0.0,64,0.00,,,0.20,Rainwise IP-100,2013-05-26 19:49:00,
2013-05-26 15:54:00,49.0,38.0,29.98,East,90,0.0,0.0,65,0.00,,,0.20,Rainwise IP-100,2013-05-26 19:54:00,
2013-05-26 15:59:00,49.0,37.0,29.98,NNE,22,0.0,0.0,64,0.00,,,0.20,Rainwise IP-100,2013-05-26 19:59:00,
2013-05-26 16:04:00,49.0,37.0,29.98,North,360,0.0,0.0,63,0.00,,,0.20,Rainwise IP-100,2013-05-26 20:04:00,
2013-05-26 16:09:00,49.0,37.0,29.98,North,360,0.0,0.0,62,0.00,,,0.20,Rainwise IP-100,2013-05-26 20:09:00,
2013-05-26 16:14:00,49.0,37.0,29.98,NW,315,0.0,0.0,62,0.00,,,0.20,Rainwise IP-100,2013-05-26 20:14:00,
2013-05-26 16:19:00,49.0,37.0,29.98,NW,315,0.0,0.0,62,0.06,,,0.21,Rainwise IP-100,2013-05-26 20:19:00,
2013-05-26 16:24:00,49.0,36.0,29.99,WNW,292,0.0,1.0,61,0.06,,,0.21,Rainwise IP-100,2013-05-26 20:24:00,
2013-05-26 16:29:00,48.0,36.0,29.99,South,180,0.0,2.0,61,0.06,,,0.22,Rainwise IP-100,2013-05-26 20:29:00,
2013-05-26 16:35:00,49.0,36.0,29.99,WSW,247,0.0,1.0,60,0.06,,,0.22,Rainwise IP-100,2013-05-26 20:35:00,
2013-05-26 16:40:00,49.0,36.0,29.99,WSW,247,0.0,3.0,59,0.00,,,0.22,Rainwise IP-100,2013-05-26 20:40:00,
2013-05-26 16:45:00,48.0,35.0,30.00,WSW,247,0.0,3.0,58,0.06,,,0.23,Rainwise IP-100,2013-05-26 20:45:00,
2013-05-26 16:50:00,48.0,35.0,30.00,WNW,292,0.0,2.0,58,0.06,,,0.23,Rainwise IP-100,2013-05-26 20:50:00,
2013-05-26 16:55:00,48.0,33.0,30.00,SE,135,1.0,2.0,57,0.00,,,0.23,Rainwise IP-100,2013-05-26 20:55:00,
2013-05-26 17:01:00,48.0,33.0,30.00,NW,315,0.0,1.0,57,0.00,,,0.23,Rainwise IP-100,2013-05-26 21:01:00,
2013-05-26 17:06:00,48.0,33.0,30.00,NW,315,0.0,6.0,57,0.00,,,0.23,Rainwise IP-100,2013-05-26 21:06:00,
2013-05-26 17:11:00,48.0,33.0,30.00,WNW,292,1.0,3.0,56,0.06,,,0.24,Rainwise IP-100,2013-05-26 21:11:00,
2013-05-26 17:16:00,48.0,33.0,30.00,NW,315,0.0,4.0,56,0.06,,,0.24,Rainwise IP-100,2013-05-26 21:16:00,
2013-05-26 17:21:00,48.0,33.0,30.00,NNW,337,1.0,6.0,56,0.00,,,0.24,Rainwise IP-100,2013-05-26 21:21:00,
2013-05-26 17:26:00,48.0,33.0,30.00,WNW,292,0.0,4.0,55,0.00,,,0.24,Rainwise IP-100,2013-05-26 21:26:00,
2013-05-26 17:31:00,48.0,33.0,30.01,WNW,292,0.0,4.0,55,0.00,,,0.24,Rainwise IP-100,2013-05-26 21:31:00,
2013-05-26 17:36:00,48.0,33.0,30.01,West,270,0.0,5.0,55,0.06,,,0.25,Rainwise IP-100,2013-05-26 21:36:00,
2013-05-26 17:41:00,48.0,33.0,30.02,WNW,292,1.0,10.0,55,0.24,,,0.28,Rainwise IP-100,2013-05-26 21:41:00,
2013-05-26 17:46:00,48.0,33.0,30.01,NNW,337,6.0,12.0,55,0.18,,,0.28,Rainwise IP-100,2013-05-26 21:46:00,
2013-05-26 17:51:00,48.0,33.0,30.02,NW,315,9.0,14.0,55,0.00,,,0.28,Rainwise IP-100,2013-05-26 21:51:00,
2013-05-26 17:56:00,47.0,32.0,30.02,NNW,337,4.0,13.0,55,0.06,,,0.29,Rainwise IP-100,2013-05-26 21:56:00,
2013-05-26 18:01:00,47.0,32.0,30.02,WNW,292,6.0,12.0,55,0.06,,,0.29,Rainwise IP-100,2013-05-26 22:01:00,
2013-05-26 18:08:00,48.0,37.0,30.02,NW,315,3.0,14.0,65,0.00,,,0.29,Rainwise IP-100,2013-05-26 22:08:00,
2013-05-26 18:13:00,48.0,37.0,30.02,WNW,292,1.0,10.0,65,0.00,,,0.29,Rainwise IP-100,2013-05-26 22:13:00,
2013-05-26 18:18:00,48.0,37.0,30.03,WNW,292,1.0,10.0,65,0.00,,,0.29,Rainwise IP-100,2013-05-26 22:18:00,
2013-05-26 18:23:00,48.0,37.0,30.03,WNW,292,1.0,9.0,65,0.00,,,0.29,Rainwise IP-100,2013-05-26 22:23:00,
2013-05-26 18:28:00,48.0,37.0,30.04,West,270,2.0,10.0,66,0.00,,,0.29,Rainwise IP-100,2013-05-26 22:28:00,
2013-05-26 18:33:00,48.0,37.0,30.04,WNW,292,1.0,9.0,66,0.00,,,0.29,Rainwise IP-100,2013-05-26 22:33:00,
2013-05-26 18:38:00,47.0,36.0,30.04,WNW,292,1.0,9.0,66,0.00,,,0.29,Rainwise IP-100,2013-05-26 22:38:00,
2013-05-26 18:43:00,47.0,36.0,30.04,NW,315,6.0,9.0,66,0.00,,,0.29,Rainwise IP-100,2013-05-26 22:43:00,
2013-05-26 18:48:00,47.0,36.0,30.04,WNW,292,6.0,12.0,66,0.00,,,0.29,Rainwise IP-100,2013-05-26 22:48:00,
2013-05-26 18:53:00,47.0,36.0,30.04,WNW,292,5.0,9.0,66,0.00,,,0.29,Rainwise IP-100,2013-05-26 22:53:00,
2013-05-26 18:58:00,47.0,36.0,30.04,WNW,292,0.0,10.0,66,0.00,,,0.29,Rainwise IP-100,2013-05-26 22:58:00,
2013-05-26 19:03:00,47.0,36.0,30.05,WNW,292,6.0,11.0,67,0.00,,,0.29,Rainwise IP-100,2013-05-26 23:03:00,
2013-05-26 19:08:00,47.0,36.0,30.05,West,270,3.0,8.0,67,0.00,,,0.29,Rainwise IP-100,2013-05-26 23:08:00,
2013-05-26 19:13:00,47.0,36.0,30.05,NW,315,1.0,8.0,67,0.00,,,0.29,Rainwise IP-100,2013-05-26 23:13:00,
2013-05-26 19:18:00,47.0,36.0,30.05,NNW,337,2.0,9.0,67,0.00,,,0.29,Rainwise IP-100,2013-05-26 23:18:00,
2013-05-26 19:23:00,47.0,36.0,30.05,WNW,292,0.0,6.0,67,0.00,,,0.29,Rainwise IP-100,2013-05-26 23:23:00,
2013-05-26 19:28:00,47.0,36.0,30.06,WNW,292,0.0,7.0,66,0.00,,,0.29,Rainwise IP-100,2013-05-26 23:28:00,
2013-05-26 19:33:00,47.0,36.0,30.06,NNW,337,0.0,8.0,66,0.00,,,0.29,Rainwise IP-100,2013-05-26 23:33:00,
2013-05-26 19:38:00,47.0,36.0,30.06,West,270,5.0,7.0,66,0.00,,,0.29,Rainwise IP-100,2013-05-26 23:38:00,
2013-05-26 19:43:00,47.0,36.0,30.06,West,270,0.0,8.0,66,0.00,,,0.29,Rainwise IP-100,2013-05-26 23:43:00,
2013-05-26 19:48:00,47.0,36.0,30.06,West,270,2.0,9.0,66,0.00,,,0.29,Rainwise IP-100,2013-05-26 23:48:00,
2013-05-26 19:54:00,47.0,33.0,30.06,WNW,292,1.0,6.0,59,0.00,,,0.29,Rainwise IP-100,2013-05-26 23:54:00,
2013-05-26 19:59:00,47.0,33.0,30.06,WNW,292,2.0,9.0,60,0.00,,,0.29,Rainwise IP-100,2013-05-26 23:59:00,
2013-05-26 20:04:00,47.0,33.0,30.07,WNW,292,4.0,7.0,60,0.00,,,0.29,Rainwise IP-100,2013-05-27 00:04:00,
2013-05-26 20:10:00,47.0,33.0,30.07,WNW,292,1.0,12.0,60,0.00,,,0.29,Rainwise IP-100,2013-05-27 00:10:00,
2013-05-26 20:15:00,47.0,35.0,30.07,WNW,292,10.0,10.0,61,0.00,,,0.29,Rainwise IP-100,2013-05-27 00:15:00,
2013-05-26 20:20:00,47.0,35.0,30.07,WNW,292,4.0,10.0,61,0.00,,,0.29,Rainwise IP-100,2013-05-27 00:20:00,
2013-05-26 20:25:00,46.0,33.0,30.07,WNW,292,2.0,12.0,62,0.00,,,0.29,Rainwise IP-100,2013-05-27 00:25:00,
2013-05-26 20:30:00,46.0,33.0,30.07,NW,315,0.0,11.0,62,0.00,,,0.29,Rainwise IP-100,2013-05-27 00:30:00,
2013-05-26 20:35:00,46.0,35.0,30.08,WNW,292,3.0,11.0,63,0.00,,,0.29,Rainwise IP-100,2013-05-27 00:35:00,
2013-05-26 20:40:00,46.0,35.0,30.08,West,270,10.0,10.0,64,0.00,,,0.29,Rainwise IP-100,2013-05-27 00:40:00,
2013-05-26 20:45:00,46.0,35.0,30.08,West,270,0.0,13.0,64,0.00,,,0.29,Rainwise IP-100,2013-05-27 00:45:00,
2013-05-26 20:50:00,46.0,35.0,30.09,NW,315,5.0,12.0,65,0.00,,,0.29,Rainwise IP-100,2013-05-27 00:50:00,
2013-05-26 20:55:00,46.0,35.0,30.09,WNW,292,4.0,12.0,65,0.00,,,0.29,Rainwise IP-100,2013-05-27 00:55:00,
2013-05-26 21:00:00,46.0,35.0,30.10,NW,315,6.0,14.0,65,0.00,,,0.29,Rainwise IP-100,2013-05-27 01:00:00,
2013-05-26 21:05:00,46.0,35.0,30.10,WNW,292,1.0,15.0,66,0.00,,,0.29,Rainwise IP-100,2013-05-27 01:05:00,
2013-05-26 21:10:00,45.0,35.0,30.10,WNW,292,3.0,10.0,66,0.00,,,0.29,Rainwise IP-100,2013-05-27 01:10:00,
2013-05-26 21:16:00,45.0,35.0,30.10,NW,315,0.0,10.0,66,0.00,,,0.29,Rainwise IP-100,2013-05-27 01:16:00,
2013-05-26 21:21:00,45.0,35.0,30.11,WNW,292,6.0,8.0,66,0.00,,,0.29,Rainwise IP-100,2013-05-27 01:21:00,
2013-05-26 21:27:00,44.0,33.0,30.11,WNW,292,3.0,6.0,66,0.00,,,0.29,Rainwise IP-100,2013-05-27 01:27:00,
2013-05-26 21:32:00,44.0,33.0,30.11,NW,315,2.0,6.0,65,0.00,,,0.29,Rainwise IP-100,2013-05-27 01:32:00,
2013-05-26 21:37:00,44.0,33.0,30.11,WNW,292,0.0,10.0,65,0.00,,,0.29,Rainwise IP-100,2013-05-27 01:37:00,
2013-05-26 21:42:00,44.0,33.0,30.12,NNW,337,2.0,2.0,65,0.00,,,0.29,Rainwise IP-100,2013-05-27 01:42:00,
2013-05-26 21:47:00,44.0,33.0,30.12,WNW,292,1.0,4.0,65,0.00,,,0.29,Rainwise IP-100,2013-05-27 01:47:00,
2013-05-26 21:52:00,43.0,32.0,30.12,NW,315,0.0,5.0,64,0.00,,,0.29,Rainwise IP-100,2013-05-27 01:52:00,
2013-05-26 21:57:00,43.0,32.0,30.12,NNE,22,0.0,6.0,64,0.00,,,0.29,Rainwise IP-100,2013-05-27 01:57:00,
2013-05-26 22:02:00,43.0,32.0,30.12,NW,315,0.0,4.0,64,0.00,,,0.29,Rainwise IP-100,2013-05-27 02:02:00,
2013-05-26 22:07:00,43.0,32.0,30.12,WSW,247,1.0,4.0,64,0.00,,,0.29,Rainwise IP-100,2013-05-27 02:07:00,
2013-05-26 22:12:00,43.0,32.0,30.12,WSW,247,0.0,6.0,64,0.00,,,0.29,Rainwise IP-100,2013-05-27 02:12:00,
2013-05-26 22:17:00,43.0,32.0,30.13,West,270,0.0,6.0,64,0.00,,,0.29,Rainwise IP-100,2013-05-27 02:17:00,
2013-05-26 22:22:00,42.0,31.0,30.13,WNW,292,0.0,5.0,63,0.00,,,0.29,Rainwise IP-100,2013-05-27 02:22:00,
2013-05-26 22:27:00,42.0,31.0,30.13,West,270,0.0,4.0,63,0.00,,,0.29,Rainwise IP-100,2013-05-27 02:27:00,
2013-05-26 22:32:00,42.0,31.0,30.13,WSW,247,0.0,4.0,63,0.00,,,0.29,Rainwise IP-100,2013-05-27 02:32:00,
2013-05-26 22:37:00,42.0,31.0,30.13,WSW,247,0.0,3.0,63,0.00,,,0.29,Rainwise IP-100,2013-05-27 02:37:00,
2013-05-26 22:42:00,42.0,31.0,30.13,WNW,292,1.0,2.0,63,0.00,,,0.29,Rainwise IP-100,2013-05-27 02:42:00,
2013-05-26 22:47:00,42.0,31.0,30.13,SW,225,0.0,3.0,63,0.00,,,0.29,Rainwise IP-100,2013-05-27 02:47:00,
2013-05-26 22:52:00,42.0,31.0,30.13,WSW,247,0.0,4.0,63,0.00,,,0.29,Rainwise IP-100,2013-05-27 02:52:00,
2013-05-26 22:57:00,42.0,31.0,30.13,WSW,247,2.0,6.0,62,0.00,,,0.29,Rainwise IP-100,2013-05-27 02:57:00,
2013-05-26 23:02:00,42.0,31.0,30.13,WSW,247,0.0,8.0,62,0.00,,,0.29,Rainwise IP-100,2013-05-27 03:02:00,
2013-05-26 23:07:00,42.0,29.0,30.13,WNW,292,0.0,4.0,61,0.00,,,0.29,Rainwise IP-100,2013-05-27 03:07:00,
2013-05-26 23:12:00,42.0,29.0,30.12,WSW,247,0.0,2.0,61,0.00,,,0.29,Rainwise IP-100,2013-05-27 03:12:00,
2013-05-26 23:17:00,41.0,29.0,30.12,WSW,247,0.0,5.0,61,0.00,,,0.29,Rainwise IP-100,2013-05-27 03:17:00,
2013-05-26 23:23:00,41.0,29.0,30.13,WSW,247,0.0,4.0,61,0.00,,,0.29,Rainwise IP-100,2013-05-27 03:23:00,
2013-05-26 23:29:00,42.0,32.0,30.13,WSW,247,0.0,4.0,67,0.00,,,0.29,Rainwise IP-100,2013-05-27 03:29:00,
2013-05-26 23:35:00,41.0,29.0,30.13,WSW,247,0.0,2.0,61,0.00,,,0.29,Rainwise IP-100,2013-05-27 03:35:00,
2013-05-26 23:40:00,41.0,29.0,30.13,West,270,1.0,5.0,61,0.00,,,0.29,Rainwise IP-100,2013-05-27 03:40:00,
2013-05-26 23:46:00,41.0,29.0,30.13,West,270,0.0,2.0,61,0.00,,,0.29,Rainwise IP-100,2013-05-27 03:46:00,
2013-05-26 23:51:00,41.0,29.0,30.13,WNW,292,0.0,4.0,61,0.00,,,0.29,Rainwise IP-100,2013-05-27 03:51:00,
2013-05-26 23:57:00,41.0,29.0,30.14,West,270,1.0,4.0,61,0.00,,,0.29,Rainwise IP-100,2013-05-27 03:57:00,